createdAt,value
2022-08-14T00:02:07.058Z,22.87
2022-08-14T00:07:13.941Z,22.81
2022-08-14T00:12:24.415Z,22.75
2022-08-14T00:17:27.956Z,22.67
2022-08-14T00:22:57.016Z,22.61
2022-08-14T00:27:56.477Z,22.50
2022-08-14T00:32:59.999Z,22.46
2022-08-14T00:38:02.976Z,22.42
2022-08-14T00:43:12.804Z,22.32
2022-08-14T00:48:34.590Z,22.28
2022-08-14T00:53:43.099Z,22.23
2022-08-14T00:58:48.706Z,22.09
2022-08-14T01:03:53.909Z,22.02
2022-08-14T01:08:59.449Z,21.97
2022-08-14T01:19:44.469Z,21.88
2022-08-14T01:24:51.757Z,21.82
2022-08-14T01:29:59.410Z,21.77
2022-08-14T01:35:18.393Z,21.71
2022-08-14T01:40:41.047Z,21.63
2022-08-14T01:45:49.031Z,21.59
2022-08-14T01:51:02.941Z,21.51
2022-08-14T01:56:16.736Z,21.40
2022-08-14T02:01:21.731Z,21.40
2022-08-14T02:06:33.475Z,21.35
2022-08-14T02:11:38.110Z,21.31
2022-08-14T02:16:43.411Z,21.24
2022-08-14T02:21:50.352Z,21.13
2022-08-14T02:28:20.161Z,21.08
2022-08-14T02:32:20.025Z,21.01
2022-08-14T02:37:37.413Z,20.97
2022-08-14T02:42:54.780Z,20.91
2022-08-14T02:48:00.529Z,20.82
2022-08-14T02:53:04.864Z,20.73
2022-08-14T02:58:09.409Z,20.70
2022-08-14T03:03:12.582Z,20.62
2022-08-14T03:08:16.066Z,20.58
2022-08-14T03:13:23.318Z,20.52
2022-08-14T03:18:31.545Z,20.46
2022-08-14T03:23:38.697Z,20.39
2022-08-14T03:28:46.244Z,20.29
2022-08-14T03:33:51.812Z,20.23
2022-08-14T03:39:14.270Z,20.15
2022-08-14T03:45:26.419Z,20.09
2022-08-14T03:49:49.947Z,20.03
2022-08-14T03:54:53.242Z,19.97
2022-08-14T03:59:57.833Z,19.91
2022-08-14T04:05:11.883Z,19.83
2022-08-14T04:10:17.247Z,19.74
2022-08-14T04:15:23.411Z,19.70
2022-08-14T04:20:26.912Z,19.57
2022-08-14T04:25:32.180Z,19.58
2022-08-14T04:30:39.316Z,19.48
2022-08-14T04:35:56.502Z,19.51
2022-08-14T04:41:17.686Z,19.51
2022-08-14T04:46:55.817Z,19.48
2022-08-14T04:51:56.039Z,19.48
2022-08-14T04:56:59.229Z,19.43
2022-08-14T05:02:03.531Z,19.41
2022-08-14T05:07:09.348Z,19.37
2022-08-14T05:13:13.190Z,19.41
2022-08-14T05:17:44.213Z,19.44
2022-08-14T05:22:57.910Z,19.51
2022-08-14T05:28:11.394Z,19.60
2022-08-14T05:33:21.041Z,19.67
2022-08-14T05:38:31.127Z,19.73
2022-08-14T05:43:41.604Z,19.82
2022-08-14T05:48:48.635Z,19.91
2022-08-14T05:54:01.701Z,20.00
2022-08-14T05:59:13.208Z,20.12
2022-08-14T06:04:21.280Z,20.20
2022-08-14T06:09:24.402Z,20.29
2022-08-14T06:14:27.372Z,20.38
2022-08-14T06:19:32.033Z,20.46
2022-08-14T06:24:35.867Z,20.54
2022-08-14T06:29:39.835Z,20.59
2022-08-14T06:35:04.069Z,20.74
2022-08-14T06:40:25.536Z,20.87
2022-08-14T06:45:30.992Z,21.00
2022-08-14T06:50:35.464Z,21.12
2022-08-14T06:55:40.742Z,21.26
2022-08-14T07:01:26.793Z,21.44
2022-08-14T07:06:46.616Z,21.61
2022-08-14T07:11:50.806Z,21.72
2022-08-14T07:21:58.073Z,22.06
2022-08-14T07:27:01.276Z,22.22
2022-08-14T07:32:06.351Z,22.34
2022-08-14T07:37:14.802Z,22.48
2022-08-14T07:42:22.555Z,22.75
2022-08-14T07:47:26.123Z,23.00
2022-08-14T07:52:42.489Z,23.35
2022-08-14T07:57:51.907Z,23.75
2022-08-14T08:02:57.076Z,24.16
2022-08-14T08:08:08.464Z,24.64
2022-08-14T08:13:30.153Z,24.97
2022-08-14T08:18:33.265Z,25.42
2022-08-14T08:23:50.878Z,25.94
2022-08-14T08:28:57.856Z,26.43
2022-08-14T08:34:06.170Z,26.77
2022-08-14T08:39:17.303Z,27.15
2022-08-14T08:44:33.378Z,27.49
2022-08-14T08:49:52.918Z,27.85
2022-08-14T08:55:05.586Z,28.39
2022-08-14T09:00:24.333Z,28.68
2022-08-14T09:05:29.170Z,29.30
2022-08-14T09:10:33.521Z,29.88
2022-08-14T09:15:42.734Z,30.40
2022-08-14T09:20:49.382Z,30.79
2022-08-14T09:25:59.063Z,31.05
2022-08-14T09:31:17.345Z,31.35
2022-08-14T09:36:36.886Z,31.52
2022-08-14T09:42:20.188Z,31.85
2022-08-14T09:47:18.781Z,32.16
2022-08-14T09:52:34.077Z,32.34
2022-08-14T09:57:38.911Z,32.63
2022-08-14T10:02:56.420Z,32.90
2022-08-14T10:08:01.957Z,33.19
2022-08-14T10:13:08.660Z,33.42
2022-08-14T10:18:18.546Z,33.72
2022-08-14T10:23:24.328Z,34.01
2022-08-14T10:29:18.238Z,34.21
2022-08-14T10:34:13.295Z,34.41
2022-08-14T10:39:19.151Z,34.57
2022-08-14T10:44:29.549Z,34.62
2022-08-14T10:49:34.172Z,34.88
2022-08-14T10:54:40.472Z,35.13
2022-08-14T10:59:49.899Z,35.25
2022-08-14T11:05:08.684Z,35.33
2022-08-14T11:10:14.577Z,35.52
2022-08-14T11:15:21.396Z,35.56
2022-08-14T11:20:29.195Z,35.62
2022-08-14T11:25:36.846Z,35.87
2022-08-14T11:30:53.977Z,35.97
2022-08-14T11:36:00.434Z,36.14
2022-08-14T11:41:05.565Z,36.32
2022-08-14T11:46:17.716Z,36.23
2022-08-14T11:51:50.849Z,36.44
2022-08-14T11:56:57.217Z,36.73
2022-08-14T12:02:38.860Z,36.83
2022-08-14T12:07:35.365Z,36.87
2022-08-14T12:12:39.374Z,37.18
2022-08-14T12:17:50.661Z,37.23
2022-08-14T12:22:55.046Z,37.06
2022-08-14T12:28:01.613Z,37.09
2022-08-14T12:33:08.899Z,37.32
2022-08-14T12:38:19.241Z,37.58
2022-08-14T12:43:22.872Z,37.74
2022-08-14T12:48:31.646Z,38.01
2022-08-14T12:53:38.967Z,37.91
2022-08-14T12:58:52.022Z,37.66
2022-08-14T13:04:08.417Z,37.52
2022-08-14T13:09:15.786Z,37.43
2022-08-14T13:14:29.878Z,37.39
2022-08-14T13:19:34.772Z,37.32
2022-08-14T13:24:39.796Z,37.61
2022-08-14T13:29:46.521Z,37.67
2022-08-14T13:34:52.518Z,37.97
2022-08-14T13:39:57.748Z,38.44
2022-08-14T13:45:03.096Z,38.63
2022-08-14T13:50:11.532Z,38.67
2022-08-14T13:55:19.185Z,38.13
2022-08-14T14:00:32.720Z,37.84
2022-08-14T14:05:52.173Z,37.56
2022-08-14T14:10:57.106Z,37.48
2022-08-14T14:16:03.915Z,37.70
2022-08-14T14:21:09.054Z,38.07
2022-08-14T14:26:20.021Z,38.25
2022-08-14T14:31:30.035Z,38.18
2022-08-14T14:36:35.656Z,38.15
2022-08-14T14:41:43.687Z,38.27
2022-08-14T14:46:51.119Z,38.27
2022-08-14T14:51:57.930Z,38.28
2022-08-14T14:57:02.167Z,38.08
2022-08-14T15:02:09.435Z,37.98
2022-08-14T15:07:16.343Z,37.87
2022-08-14T15:12:56.361Z,37.90
2022-08-14T15:17:42.483Z,37.84
2022-08-14T15:22:51.309Z,37.75
2022-08-14T15:27:55.011Z,37.43
2022-08-14T15:32:58.012Z,37.29
2022-08-14T15:38:07.862Z,37.05
2022-08-14T15:43:12.847Z,36.97
2022-08-14T15:48:22.558Z,37.14
2022-08-14T15:53:31.371Z,37.24
2022-08-14T15:58:35.583Z,37.24
2022-08-14T16:03:42.347Z,37.08
2022-08-14T16:08:58.998Z,36.82
2022-08-14T16:14:06.802Z,36.70
2022-08-14T16:19:11.440Z,36.67
2022-08-14T16:24:27.045Z,36.73
2022-08-14T16:29:32.895Z,36.76
2022-08-14T16:34:46.757Z,36.63
2022-08-14T16:39:54.153Z,36.44
2022-08-14T16:44:58.718Z,36.25
2022-08-14T16:50:04.829Z,36.02
2022-08-14T16:55:17.743Z,35.78
2022-08-14T17:00:32.657Z,35.58
2022-08-14T17:05:38.309Z,35.46
2022-08-14T17:16:25.218Z,35.09
2022-08-14T17:21:31.737Z,34.86
2022-08-14T17:26:38.665Z,34.64
2022-08-14T17:31:59.014Z,34.40
2022-08-14T17:37:05.224Z,34.19
2022-08-14T17:42:16.656Z,34.00
2022-08-14T17:47:38.370Z,33.77
2022-08-14T17:52:50.094Z,33.52
2022-08-14T17:57:54.666Z,33.28
2022-08-14T18:03:00.199Z,33.15
2022-08-14T18:08:32.755Z,32.98
2022-08-14T18:13:51.890Z,32.76
2022-08-14T18:19:02.774Z,32.53
2022-08-14T18:24:28.357Z,32.31
2022-08-14T18:29:31.609Z,32.09
2022-08-14T18:34:48.508Z,31.88
2022-08-14T18:40:03.484Z,31.63
2022-08-14T18:45:15.329Z,31.38
2022-08-14T18:50:27.863Z,31.12
2022-08-14T18:55:53.223Z,30.89
2022-08-14T19:00:59.522Z,30.67
2022-08-14T19:06:05.663Z,30.49
2022-08-14T19:11:50.486Z,30.31
2022-08-14T19:16:55.025Z,30.13
2022-08-14T19:22:01.945Z,29.95
2022-08-14T19:27:18.996Z,29.75
2022-08-14T19:32:41.125Z,29.55
2022-08-14T19:37:48.465Z,29.37
2022-08-14T19:42:58.438Z,29.21
2022-08-14T19:48:02.970Z,29.08
2022-08-14T19:53:11.205Z,28.94
2022-08-14T19:58:15.070Z,28.81
2022-08-14T20:03:23.193Z,28.70
2022-08-14T20:11:00.609Z,28.51
2022-08-14T20:14:10.330Z,28.20
2022-08-14T20:19:16.687Z,28.02
2022-08-14T20:24:31.198Z,27.79
2022-08-14T20:29:37.867Z,27.66
2022-08-14T20:34:51.165Z,27.56
2022-08-14T20:39:56.746Z,27.48
2022-08-14T20:45:23.565Z,27.36
2022-08-14T20:50:29.606Z,27.33
2022-08-14T20:55:45.119Z,27.28
2022-08-14T21:00:52.430Z,27.15
2022-08-14T21:05:58.929Z,27.12
2022-08-14T21:11:02.812Z,27.04
2022-08-14T21:16:33.750Z,26.99
2022-08-14T21:21:41.462Z,26.87
2022-08-14T21:26:50.822Z,26.79
2022-08-14T21:31:56.673Z,26.71
2022-08-14T21:37:09.759Z,26.64
2022-08-14T21:42:13.950Z,26.58
2022-08-14T21:47:20.532Z,26.53
2022-08-14T21:52:51.247Z,26.46
2022-08-14T21:58:46.164Z,26.41
2022-08-14T22:03:19.288Z,26.31
2022-08-14T22:08:29.427Z,26.22
2022-08-14T22:13:32.725Z,26.14
2022-08-14T22:18:36.558Z,26.13
2022-08-14T22:23:41.313Z,26.06
2022-08-14T22:28:46.706Z,26.02
2022-08-14T22:33:59.285Z,25.98
2022-08-14T22:39:06.762Z,25.93
2022-08-14T22:44:20.038Z,25.89
2022-08-14T22:50:32.024Z,25.84
2022-08-14T22:54:52.589Z,25.83
2022-08-14T22:59:57.285Z,25.81
2022-08-14T23:05:03.937Z,25.78
2022-08-14T23:10:31.647Z,25.75
2022-08-14T23:15:34.091Z,25.70
2022-08-14T23:20:39.598Z,25.67
2022-08-14T23:25:57.955Z,25.66
2022-08-14T23:31:05.615Z,25.65
2022-08-14T23:36:32.064Z,25.64
2022-08-14T23:41:45.761Z,25.63
2022-08-14T23:46:52.806Z,25.63
2022-08-14T23:52:50.071Z,25.62
2022-08-14T23:57:30.719Z,25.59
